Applegate, Michigan
Current Conditions -  °F | °C
As of 10:48 AM on Sunday 23 Nov 2014 (Local Time) from CYZR Reporting Station
Light Rain Light Rain  
Wind Chill: 38°   Ceiling: 900
Heat Index: 45°   Visibility: 5mi
Dew Point: 43°   Wind: 13mph
Humidity: 93%   Direction: 190°S
Pressure: 29.95"   Gusts: 21mph
Location:  43.36°N, 82.64°W
Report Text: CYZR 231548Z AUTO 19011G18KT 5SM -RA BR BKN009 OVC028 07/06 A2995 RMK SLP146
Loading
Personal Weather Stations






























Interactive Weather Map New forecast layout! Learn more

10-Day Weather Forecast

Advertisements
Track Severe Weather on mobile